Tongo Airport

Jump to: basic info | weather | comments

Related pages: nearby airports | nearby navaids | notams | map

Basic information (top)

Codes: GFTO
Location: lon 8.217000, lat -11.067000, elev 750 ft / 229 m msl
Status: small_airport

Weather (top)

Current conditions for Roberts International Airport 126nm (234km) SSE (rec'd 2014/08/02 05:00Z):

GLRB 020500Z 00000KT 9999 BKN013 24/23 Q1014 NOSIG

Airport forecast for Roberts International Airport 126nm (234km) SSE (rec'd 2014/08/02 06:51Z):

TAF TAF GLRB 020400Z 0206/0312 21010KT 9999 BKN016 FEW024 CB 
      TEMPO 0208/0212 20008KT 9999 BKN017 
      BECMG 0213/0215 23010KT 8000 SHRA/TSRA BKN014 FEW023CB 
      BECMG 0216/0218 16008KT 9999 BKN013

Latest comments (top)

No comments yet for Tongo Airport

More... (top)

See also NOTAMs and nearby airports and navaids, or visit the Tongo Airport page at the main OurAirports website..